Nicholville, NY (12965)

4:48 PM EST on February 23, 2017 (GMT -0500)
Heath Hill Rd | | Change Station
Active Advisory: Areal Flood Watch Active Notice: Areal Flood Watch

Elev 200 ft 44.77 °N, 74.59 °W | Updated 26 seconds ago

Mostly Cloudy
Mostly Cloudy
59.0 °F
Feels Like 59.0 °F
N
2.9
Wind Variable Wind from SW
Gusts 4.9 mph

Today
High -- | Low -- °F
--% Chance of Precip.
Yesterday
High -- | Low -- °F
Precip. -- in
Pressure 29.61 in
Visibility 10.0 miles
Clouds Clear
Dew Point 49 °F
Humidity 68%
Rainfall 0.00 in
Snow Depth Not available.
6:45 AM 5:38 PM
Waning Crescent, 8% visible
METAR KMSS 232053Z AUTO 23016G25KT 10SM CLR 15/11 A2960 RMK AO2 PK WND 20026/2004 SLP026 T01500106 53013
Pressure 29.61 in
Visibility 10.0 miles
Clouds Clear
Dew Point 49 °F
Humidity 68%
Rainfall 0.00 in
Snow Depth Not available.
6:45 AM 5:38 PM
Waning Crescent, 8% visible
METAR KMSS 232053Z AUTO 23016G25KT 10SM CLR 15/11 A2960 RMK AO2 PK WND 20026/2004 SLP026 T01500106 53013

Get Your Daily Forecast Email!

Thanks for signing up!

Be on the lookout for a verification email in your inbox.

You'll start receiving the daily forecast at 8 AM.

×

10-Day Weather Forecast

Almanac

Astronomy

Feb. 23, 2017 Rise Set
Actual Time
Civil Twilight
Nautical Twilight
Astronomical Twilight
Moon
Length of Visible Light
Length of Day
Tomorrow will be .
, % of the Moon is Illuminated

Today's Extremes

State Highs State Lows

Community

WunderPhotos

Upload Photos

1,962,540 photos uploaded!

WunderBlog® & News

Nearby

Air Quality

  Air Quality AQ Index Pollutant
Not available.

Snow Depth

Station Depth Elevation

Earthquake Activity

City Distance Mag. Time & Date
Minimum magnitude displayed is 2.5.

Coastal Water Temperatures

Place Temperature

Stations

Nearby Weather Stations

Station Location Temp. Windchill Dew Point Humidity Wind Precip. Elev Updated Type
                   

Watches & Warnings

Areal Flood Watch
Issued: 3:30 PM EST Feb. 23, 2017 – National Weather Service

... Flood Watch remains in effect from Friday evening through
Sunday evening...

The Flood Watch continues for

* all of northern New York and central and northern Vermont.

* From Friday evening through Sunday evening

* minor to locally moderate flooding is possible due to the
combination of snow melt and rainfall amounts between a half and
one inch. The flood threat will be highest on rivers and streams
where ice breakup occurs, primarily across northeast New York
and northern Vermont, primarily north of Route 2. Note that
localized ice jam flooding could begin on Friday, while the bulk
of any flooding is expected after rainfall on Saturday.

Precautionary/preparedness actions...

A Flood Watch means there is a potential for flooding based on
current forecasts.

You should monitor later forecasts and be alert for possible
flood warnings. Those living in areas prone to flooding should be
prepared to take action should flooding develop.


Nash